Time;durP1;ratioP1;P1;durP2;ratioP2;P2;SDS_P1;SDS_P2;PMS_P1;PMS_P2;Temp;Humidity;BMP_temperature;BMP_pressure;BME280_temperature;BME280_humidity;BME280_pressure;Samples;Min_cycle;Max_cycle;Signal;HPM_P1;HPM_P2
2022/11/18 00:00:45;;;;;;;8.23;3.65;;;;;;;7.76;100.00;99288.53;5035950;28;20033;-40
2022/11/18 00:03:10;;;;;;;14.35;3.58;;;;;;;7.75;100.00;99291.44;5045952;28;20021;-38
2022/11/18 00:05:35;;;;;;;7.13;3.15;;;;;;;7.75;100.00;99296.78;5046113;28;20028;-40
2022/11/18 00:08:01;;;;;;;8.98;3.53;;;;;;;7.78;100.00;99291.03;5035064;28;20029;-37
2022/11/18 00:10:26;;;;;;;9.35;3.33;;;;;;;7.76;100.00;99293.88;5044645;28;20036;-40
2022/11/18 00:15:35;;;;;;;4.88;2.92;;;;;;;7.80;100.00;99302.38;5042876;28;20082;-39
2022/11/18 00:18:01;;;;;;;5.63;3.17;;;;;;;7.82;100.00;99313.69;5031373;28;20057;-40
2022/11/18 00:20:26;;;;;;;11.85;3.78;;;;;;;7.76;100.00;99315.31;5043975;28;20029;-39
2022/11/18 00:22:51;;;;;;;6.45;4.10;;;;;;;7.80;100.00;99318.44;5024113;28;20155;-40
2022/11/18 00:25:17;;;;;;;7.65;3.30;;;;;;;7.78;100.00;99317.81;5038596;28;20030;-37
2022/11/18 00:27:42;;;;;;;6.63;3.33;;;;;;;7.82;100.00;99324.38;5044052;28;20033;-40
2022/11/18 00:30:08;;;;;;;6.25;3.55;;;;;;;7.77;100.00;99324.19;5030729;28;20033;-40
2022/11/18 00:32:33;;;;;;;6.38;3.45;;;;;;;7.74;100.00;99333.47;5042511;28;20025;-41
2022/11/18 00:34:59;;;;;;;13.27;3.60;;;;;;;7.73;100.00;99339.00;5038078;28;20384;-41
2022/11/18 00:37:24;;;;;;;7.05;3.60;;;;;;;7.77;100.00;99340.25;5029971;28;20471;-38
2022/11/18 00:39:49;;;;;;;10.75;3.80;;;;;;;7.76;100.00;99349.31;5029961;28;20339;-39
2022/11/18 00:44:59;;;;;;;6.95;3.22;;;;;;;7.72;100.00;99358.78;5043686;28;20047;-40
2022/11/18 00:47:24;;;;;;;9.10;4.38;;;;;;;7.73;100.00;99363.09;5034829;28;20029;-40
2022/11/18 00:49:49;;;;;;;8.20;3.83;;;;;;;7.69;100.00;99357.34;5040967;28;20030;-39
2022/11/18 00:52:14;;;;;;;8.88;4.20;;;;;;;7.71;100.00;99360.59;5029939;28;20034;-39
2022/11/18 00:54:40;;;;;;;7.50;3.45;;;;;;;7.68;100.00;99361.84;5033705;28;20094;-36
2022/11/18 00:57:05;;;;;;;7.93;3.75;;;;;;;7.63;100.00;99369.63;5047942;28;20033;-41
2022/11/18 00:59:30;;;;;;;6.43;4.10;;;;;;;7.62;100.00;99373.34;5040445;28;20041;-38
2022/11/18 01:01:56;;;;;;;9.32;4.30;;;;;;;7.59;100.00;99381.78;5030097;28;20499;-38
2022/11/18 01:04:22;;;;;;;9.30;3.95;;;;;;;7.58;100.00;99381.97;5031696;28;20391;-39
2022/11/18 01:06:47;;;;;;;10.93;3.70;;;;;;;7.55;100.00;99383.19;5032243;28;20448;-39
2022/11/18 01:09:12;;;;;;;8.88;4.20;;;;;;;7.52;100.00;99385.44;5036115;28;20026;-40
2022/11/18 01:14:25;;;;;;;10.98;3.92;;;;;;;7.54;100.00;99400.28;5039861;28;20060;-39
2022/11/18 01:16:53;;;;;;;7.32;3.80;;;;;;;7.46;100.00;99400.47;5034093;28;20037;-40
2022/11/18 01:19:19;;;;;;;7.53;3.90;;;;;;;7.47;100.00;99412.81;5029179;28;20061;-40
2022/11/18 01:21:45;;;;;;;7.55;3.60;;;;;;;7.47;100.00;99412.81;5029781;28;20057;-39
2022/11/18 01:24:10;;;;;;;7.30;3.28;;;;;;;7.47;100.00;99418.16;5028755;28;20022;-37
2022/11/18 01:26:35;;;;;;;12.18;4.50;;;;;;;7.44;100.00;99410.53;5049802;28;20028;-39
2022/11/18 01:29:01;;;;;;;6.82;3.97;;;;;;;7.41;100.00;99418.94;5031139;28;20480;-39
2022/11/18 01:31:28;;;;;;;8.85;3.78;;;;;;;7.35;100.00;99419.75;5028010;28;20396;-37
2022/11/18 01:33:53;;;;;;;9.13;3.97;;;;;;;7.32;100.00;99420.13;5035136;28;20042;-38
2022/11/18 01:36:23;;;;;;;11.45;4.47;;;;;;;7.28;100.00;99424.22;5033738;28;20040;-37
2022/11/18 01:38:49;;;;;;;11.43;4.40;;;;;;;7.32;100.00;99428.13;5031756;28;20099;-39
2022/11/18 01:41:16;;;;;;;11.07;4.63;;;;;;;7.33;100.00;99432.50;5034449;28;20021;-39
2022/11/18 01:44:02;;;;;;;11.52;4.57;;;;;;;7.32;100.00;99438.84;5027372;28;20025;-40
2022/11/18 01:46:29;;;;;;;8.18;4.50;;;;;;;7.31;100.00;99438.03;5042157;28;20463;-41
2022/11/18 01:48:59;;;;;;;7.72;4.45;;;;;;;7.26;100.00;99438.59;5034714;28;20053;-40
2022/11/18 01:51:29;;;;;;;13.60;4.38;;;;;;;7.26;100.00;99445.81;5029559;28;20030;-39
2022/11/18 01:54:02;;;;;;;11.40;4.68;;;;;;;7.26;100.00;99443.13;5028314;28;20056;-39
2022/11/18 01:56:52;;;;;;;13.95;4.93;;;;;;;7.22;100.00;99442.72;5039825;28;20491;-40
2022/11/18 01:59:20;;;;;;;14.05;5.72;;;;;;;7.22;100.00;99447.25;5036844;28;20152;-39
2022/11/18 02:01:47;;;;;;;12.30;4.57;;;;;;;7.26;100.00;99443.94;5034707;28;20518;-38
2022/11/18 02:04:13;;;;;;;9.50;4.77;;;;;;;7.25;100.00;99446.84;5039480;28;20041;-40
2022/11/18 02:06:38;;;;;;;8.18;4.78;;;;;;;7.19;100.00;99448.44;5052101;28;20025;-37
2022/11/18 02:09:04;;;;;;;9.45;4.57;;;;;;;7.18;100.00;99445.97;5037980;28;20029;-39
2022/11/18 02:14:14;;;;;;;10.30;5.47;;;;;;;7.17;100.00;99455.84;5039182;28;20545;-40
2022/11/18 02:16:45;;;;;;;9.52;5.00;;;;;;;7.16;100.00;99466.72;5032152;28;20044;-38
2022/11/18 02:19:25;;;;;;;10.73;4.93;;;;;;;7.15;100.00;99468.56;5032798;28;20029;-39
2022/11/18 02:22:09;;;;;;;12.13;4.50;;;;;;;7.16;100.00;99470.25;5032133;28;20045;-40
2022/11/18 02:24:53;;;;;;;9.63;5.45;;;;;;;7.17;100.00;99474.56;5032176;28;20025;-40
2022/11/18 02:27:53;;;;;;;13.68;5.57;;;;;;;7.19;100.00;99480.56;5048448;28;20119;-40
2022/11/18 02:30:18;;;;;;;13.02;5.13;;;;;;;7.19;100.00;99485.91;5044940;28;20569;-40
2022/11/18 02:33:04;;;;;;;18.98;4.80;;;;;;;7.20;100.00;99487.56;5029623;28;20120;-38
2022/11/18 02:35:36;;;;;;;11.13;5.32;;;;;;;7.26;100.00;99491.31;5040595;28;20025;-39
2022/11/18 02:38:06;;;;;;;8.23;4.95;;;;;;;7.25;100.00;99490.47;5046117;28;20371;-39
2022/11/18 02:40:38;;;;;;;11.48;5.03;;;;;;;7.20;100.00;99498.25;5041889;28;20029;-37
2022/11/18 02:43:15;;;;;;;10.40;5.05;;;;;;;7.22;100.00;99496.22;5042915;28;20037;-37
2022/11/18 02:45:44;;;;;;;11.23;5.00;;;;;;;7.26;100.00;99489.44;5030860;28;20052;-38
2022/11/18 02:48:09;;;;;;;;;;;;;;;7.24;100.00;99496.88;5031396;28;20464;-36
2022/11/18 02:50:36;;;;;;;8.30;4.72;;;;;;;7.23;100.00;99497.88;5030523;28;20011;-40
2022/11/18 02:53:04;;;;;;;11.33;5.10;;;;;;;7.22;100.00;99498.91;5032557;28;20029;-36
2022/11/18 02:55:32;;;;;;;10.77;4.97;;;;;;;7.23;100.00;99500.53;5033370;28;20032;-40
2022/11/18 02:58:00;;;;;;;8.70;4.93;;;;;;;7.25;100.00;99498.50;5028822;28;20057;-39
2022/11/18 03:00:26;;;;;;;;;;;;;;;7.33;100.00;99502.06;5045674;28;20025;-37
2022/11/18 03:02:51;;;;;;;10.75;4.68;;;;;;;7.35;100.00;99510.75;5032498;28;19917;-36
2022/11/18 03:05:40;;;;;;;14.25;5.30;;;;;;;7.35;100.00;99508.06;5048380;28;20053;-37
2022/11/18 03:08:12;;;;;;;12.57;4.72;;;;;;;7.36;100.00;99512.38;5045639;28;20057;-38
2022/11/18 03:10:56;;;;;;;10.63;5.68;;;;;;;7.40;100.00;99511.00;5039957;28;20487;-36
2022/11/18 03:13:37;;;;;;;13.52;5.30;;;;;;;7.43;100.00;99514.09;5030085;28;20037;-40
2022/11/18 03:16:09;;;;;;;17.27;5.45;;;;;;;7.48;100.00;99513.53;5035741;28;20049;-40
2022/11/18 03:18:57;;;;;;;14.30;5.18;;;;;;;7.54;100.00;99512.75;5031669;28;20025;-40
2022/11/18 03:21:31;;;;;;;10.73;4.68;;;;;;;7.59;100.00;99512.16;5029154;28;20052;-37
2022/11/18 03:24:05;;;;;;;10.02;4.55;;;;;;;7.61;100.00;99516.28;5046588;28;20035;-38
2022/11/18 03:26:35;;;;;;;12.63;4.95;;;;;;;7.68;100.00;99514.47;5045349;28;20021;-39
2022/11/18 03:29:14;;;;;;;14.57;5.35;;;;;;;7.75;100.00;99516.38;5029135;28;20426;-37
2022/11/18 03:31:52;;;;;;;10.70;4.90;;;;;;;7.80;100.00;99519.31;5038129;28;20068;-39
2022/11/18 03:34:24;;;;;;;18.35;5.53;;;;;;;7.84;100.00;99528.59;5041547;28;20060;-40
2022/11/18 03:36:52;;;;;;;12.93;5.28;;;;;;;7.85;100.00;99531.09;5029914;28;20061;-38
2022/11/18 03:39:19;;;;;;;11.07;5.30;;;;;;;7.87;100.00;99531.72;5033395;28;20033;-38
2022/11/18 03:41:54;;;;;;;12.50;4.78;;;;;;;7.87;100.00;99536.22;5042973;28;20021;-40
2022/11/18 03:44:22;;;;;;;10.18;5.18;;;;;;;7.84;100.00;99541.97;5049131;28;20044;-40
2022/11/18 03:46:52;;;;;;;8.88;4.38;;;;;;;7.81;100.00;99547.72;5041237;28;20107;-38
2022/11/18 03:49:23;;;;;;;13.75;5.15;;;;;;;7.77;100.00;99543.81;5030988;28;20037;-37
2022/11/18 03:51:53;;;;;;;15.68;4.82;;;;;;;7.74;100.00;99546.84;5028333;28;20116;-39
2022/11/18 03:54:29;;;;;;;8.10;5.25;;;;;;;7.69;100.00;99544.78;5027868;28;20049;-40
2022/11/18 03:57:14;;;;;;;18.55;5.05;;;;;;;7.66;100.00;99546.00;5031105;28;20037;-40
2022/11/18 03:59:47;;;;;;;15.55;5.78;;;;;;;7.66;100.00;99545.16;5033273;28;20030;-40
2022/11/18 04:02:14;;;;;;;13.07;5.32;;;;;;;7.64;100.00;99550.72;5026327;28;20025;-37
2022/11/18 04:04:41;;;;;;;9.90;5.18;;;;;;;7.69;100.00;99556.31;5029201;28;20049;-37
2022/11/18 04:07:20;;;;;;;14.73;5.55;;;;;;;7.70;100.00;99551.78;5042686;28;20025;-38
2022/11/18 04:10:08;;;;;;;10.90;4.80;;;;;;;7.68;100.00;99560.00;5040506;28;20037;-40
2022/11/18 04:12:34;;;;;;;;;;;;;;;7.68;100.00;99567.22;5047041;28;20179;-38
2022/11/18 04:15:00;;;;;;;16.85;5.90;;;;;;;7.66;100.00;99571.91;5033347;28;19917;-37
2022/11/18 04:17:27;;;;;;;9.82;5.10;;;;;;;7.68;100.00;99570.72;5033534;28;20043;-38
2022/11/18 04:19:52;;;;;;;12.23;5.00;;;;;;;7.67;100.00;99574.41;5036985;28;20503;-38
2022/11/18 04:22:18;;;;;;;12.23;4.90;;;;;;;7.69;100.00;99577.75;5042758;28;20104;-37
2022/11/18 04:24:43;;;;;;;13.52;5.43;;;;;;;7.70;100.00;99579.38;5033595;28;20021;-38
2022/11/18 04:27:09;;;;;;;13.13;4.80;;;;;;;7.73;100.00;99582.69;5036928;28;20026;-37
2022/11/18 04:29:34;;;;;;;13.20;5.10;;;;;;;7.72;100.00;99586.41;5033148;28;20044;-37
2022/11/18 04:32:00;;;;;;;15.95;4.63;;;;;;;7.73;100.00;99588.88;5040699;28;20037;-38
2022/11/18 04:34:27;;;;;;;16.35;5.00;;;;;;;7.74;100.00;99600.41;5038437;28;20017;-40
2022/11/18 04:36:52;;;;;;;9.57;5.10;;;;;;;7.75;100.00;99591.38;5027996;28;20495;-40
2022/11/18 04:39:17;;;;;;;13.10;4.95;;;;;;;7.72;100.00;99603.31;5034843;28;20203;-40
2022/11/18 04:41:56;;;;;;;19.95;6.05;;;;;;;7.69;100.00;99607.19;5029376;28;20120;-37
2022/11/18 04:44:32;;;;;;;8.95;5.43;;;;;;;7.65;100.00;99603.22;5031827;28;20036;-36
2022/11/18 04:47:00;;;;;;;10.02;4.95;;;;;;;7.66;100.00;99607.59;5038910;28;20052;-38
2022/11/18 04:49:26;;;;;;;14.50;5.15;;;;;;;7.66;100.00;99620.13;5042163;28;20135;-37
2022/11/18 04:51:52;;;;;;;13.43;5.72;;;;;;;7.66;100.00;99618.31;5047381;28;20094;-39
2022/11/18 04:54:18;;;;;;;14.65;5.22;;;;;;;7.65;100.00;99618.47;5047114;28;20060;-37
2022/11/18 04:56:44;;;;;;;13.50;5.13;;;;;;;7.63;100.00;99623.19;5045500;28;20140;-39
2022/11/18 04:59:11;;;;;;;13.45;5.43;;;;;;;7.58;100.00;99637.19;5040218;28;20112;-39
2022/11/18 05:01:36;;;;;;;11.40;5.35;;;;;;;7.59;100.00;99636.16;5046296;28;20037;-39
2022/11/18 05:04:03;;;;;;;17.75;5.40;;;;;;;7.59;100.00;99636.16;5043400;28;20106;-40
2022/11/18 05:06:29;;;;;;;17.40;5.75;;;;;;;7.59;100.00;99636.16;5031405;28;20038;-40
2022/11/18 05:08:56;;;;;;;14.82;4.72;;;;;;;7.55;100.00;99640.22;5029284;28;20033;-39
2022/11/18 05:14:05;;;;;;;15.23;5.13;;;;;;;7.52;100.00;99651.31;5038780;28;20067;-37
2022/11/18 05:16:30;;;;;;;20.95;4.95;;;;;;;7.50;100.00;99653.34;5032402;28;20045;-38
2022/11/18 05:18:56;;;;;;;16.92;4.97;;;;;;;7.48;100.00;99658.09;5037318;28;20032;-39
2022/11/18 05:21:21;;;;;;;14.10;5.15;;;;;;;7.46;100.00;99658.25;5041655;28;20065;-36
2022/11/18 05:23:48;;;;;;;15.35;5.00;;;;;;;7.44;100.00;99660.28;5028452;28;20025;-38
2022/11/18 05:26:13;;;;;;;12.98;4.70;;;;;;;7.39;100.00;99659.22;5028740;28;20041;-37
2022/11/18 05:28:39;;;;;;;11.05;4.78;;;;;;;7.41;100.00;99659.84;5037966;28;20060;-38
2022/11/18 05:31:12;;;;;;;13.18;4.82;;;;;;;7.36;100.00;99656.91;5040892;28;20041;-39
2022/11/18 05:33:38;;;;;;;14.20;4.75;;;;;;;7.35;100.00;99663.31;5035360;28;20483;-39
2022/11/18 05:36:09;;;;;;;16.00;5.25;;;;;;;7.32;100.00;99666.34;5018124;28;20147;-39
2022/11/18 05:38:34;;;;;;;14.32;4.97;;;;;;;7.28;100.00;99670.44;5045246;28;20504;-38
2022/11/18 05:41:00;;;;;;;12.48;4.43;;;;;;;7.25;100.00;99672.47;5030483;28;20025;-39
2022/11/18 05:43:26;;;;;;;13.55;4.25;;;;;;;7.24;100.00;99676.16;5027608;28;20033;-38
2022/11/18 05:45:52;;;;;;;16.52;4.55;;;;;;;7.28;100.00;99670.44;5032983;28;20048;-38
2022/11/18 05:48:18;;;;;;;13.18;4.57;;;;;;;7.22;100.00;99672.84;5038147;28;20032;-37
2022/11/18 05:50:46;;;;;;;12.15;4.50;;;;;;;7.18;100.00;99678.75;5045456;28;20037;-39
2022/11/18 05:53:12;;;;;;;12.23;4.78;;;;;;;7.12;100.00;99680.34;5043185;28;20476;-38
2022/11/18 05:55:41;;;;;;;16.52;5.07;;;;;;;7.11;100.00;99673.34;5032638;28;20079;-40
2022/11/18 05:58:06;;;;;;;17.58;4.97;;;;;;;7.08;100.00;99684.38;5035604;28;20043;-38
2022/11/18 06:00:31;;;;;;;14.73;4.78;;;;;;;7.09;100.00;99696.78;5044461;28;20426;-37
2022/11/18 06:02:57;;;;;;;12.98;4.78;;;;;;;7.08;100.00;99695.09;5042224;28;20484;-41
2022/11/18 06:05:23;;;;;;;16.35;4.55;;;;;;;7.08;100.00;99688.91;5030895;28;20041;-39
2022/11/18 06:07:49;;;;;;;12.48;4.50;;;;;;;7.10;100.00;99701.09;5033130;28;20031;-40
2022/11/18 06:10:23;;;;;;;14.13;4.85;;;;;;;7.10;100.00;99705.63;5047178;28;20116;-39
2022/11/18 06:12:50;;;;;;;12.38;5.03;;;;;;;7.11;100.00;99705.44;5031649;28;20116;-38
2022/11/18 06:15:20;;;;;;;14.05;4.38;;;;;;;7.18;100.00;99714.34;5032950;28;20041;-38
2022/11/18 06:18:02;;;;;;;12.43;4.88;;;;;;;7.22;100.00;99712.16;5031611;28;20037;-40
2022/11/18 06:20:28;;;;;;;11.27;4.50;;;;;;;7.13;100.00;99719.44;5035257;28;20507;-37
2022/11/18 06:22:55;;;;;;;10.65;4.13;;;;;;;7.10;100.00;99721.66;5034607;28;20057;-37
2022/11/18 06:25:20;;;;;;;12.50;4.05;;;;;;;7.11;100.00;99729.53;5039982;28;20117;-40
2022/11/18 06:27:47;;;;;;;13.27;4.60;;;;;;;7.13;100.00;99727.47;5051226;28;20111;-39
2022/11/18 06:30:13;;;;;;;16.50;5.43;;;;;;;7.11;100.00;99734.88;5046578;28;20099;-37
2022/11/18 06:32:39;;;;;;;15.50;5.28;;;;;;;7.10;100.00;99738.56;5032115;28;20488;-39
2022/11/18 06:35:05;;;;;;;13.63;4.78;;;;;;;7.09;100.00;99747.59;5046086;28;20032;-38
2022/11/18 06:37:30;;;;;;;15.02;5.35;;;;;;;7.09;100.00;99742.25;5052674;28;20036;-37
2022/11/18 06:39:56;;;;;;;10.43;4.90;;;;;;;7.08;100.00;99745.91;5038601;28;20509;-40
2022/11/18 06:45:06;;;;;;;14.70;4.75;;;;;;;7.08;100.00;99750.44;5052135;28;20051;-36
2022/11/18 06:47:31;;;;;;;17.35;5.28;;;;;;;7.03;100.00;99759.06;5051133;28;20371;-38
2022/11/18 06:49:57;;;;;;;18.20;5.45;;;;;;;7.02;100.00;99762.72;5034934;28;20372;-38
2022/11/18 06:52:22;;;;;;;18.85;5.43;;;;;;;7.02;100.00;99763.56;5049729;28;20505;-39
2022/11/18 06:54:48;;;;;;;14.70;4.93;;;;;;;7.01;100.00;99777.13;5036350;28;20488;-39
2022/11/18 06:57:14;;;;;;;17.80;4.95;;;;;;;7.01;100.00;99785.16;5048632;28;20037;-40
2022/11/18 06:59:39;;;;;;;19.10;5.05;;;;;;;7.01;100.00;99779.81;5037214;28;20545;-38
2022/11/18 07:02:05;;;;;;;22.70;4.97;;;;;;;7.02;100.00;99779.59;5031190;28;20191;-39
2022/11/18 07:04:32;;;;;;;18.98;5.45;;;;;;;7.03;100.00;99791.16;5034855;28;20128;-40
2022/11/18 07:06:57;;;;;;;13.03;5.03;;;;;;;7.08;100.00;99794.09;5045666;28;20088;-40
2022/11/18 07:09:23;;;;;;;18.00;5.28;;;;;;;7.16;100.00;99794.00;5041936;28;20064;-38
2022/11/18 07:11:48;;;;;;;16.35;4.57;;;;;;;7.17;100.00;99793.00;5031312;28;20052;-39
2022/11/18 07:14:13;;;;;;;21.33;5.05;;;;;;;7.23;100.00;99808.28;5033689;28;20490;-39
2022/11/18 07:16:39;;;;;;;18.30;5.13;;;;;;;7.27;100.00;99803.41;5037598;28;20371;-38
2022/11/18 07:19:09;;;;;;;17.40;4.65;;;;;;;7.26;100.00;99807.91;5032871;28;20090;-39
2022/11/18 07:21:35;;;;;;;9.35;4.90;;;;;;;7.29;100.00;99805.88;5037895;28;20367;-39
2022/11/18 07:24:04;;;;;;;20.25;5.75;;;;;;;7.32;100.00;99805.50;5030828;28;20045;-40
2022/11/18 07:26:29;;;;;;;18.75;5.30;;;;;;;7.35;100.00;99805.16;5030519;28;20033;-37
2022/11/18 07:28:55;;;;;;;16.67;5.07;;;;;;;7.36;100.00;99817.53;5013980;28;20049;-38
2022/11/18 07:31:20;;;;;;;18.48;5.38;;;;;;;7.36;100.00;99823.69;5030484;28;20459;-39
2022/11/18 07:33:46;;;;;;;16.90;5.55;;;;;;;7.39;100.00;99823.31;5031423;28;20602;-39
2022/11/18 07:36:20;;;;;;;12.13;5.32;;;;;;;7.39;100.00;99830.53;5031045;28;20029;-38
2022/11/18 07:38:45;;;;;;;13.55;5.15;;;;;;;7.42;100.00;99838.19;5039821;28;20461;-37
2022/11/18 07:41:13;;;;;;;16.40;5.25;;;;;;;7.44;100.00;99830.81;5036680;28;20147;-37
2022/11/18 07:43:39;;;;;;;18.38;5.40;;;;;;;7.50;100.00;99851.47;5032277;28;20029;-38
2022/11/18 07:46:12;;;;;;;16.65;6.05;;;;;;;7.50;100.00;99856.81;5037252;28;20029;-38
2022/11/18 07:48:39;;;;;;;20.02;5.55;;;;;;;7.53;100.00;99845.75;5039590;28;20123;-38
2022/11/18 07:51:04;;;;;;;14.35;4.72;;;;;;;7.58;100.00;99859.41;5040413;28;20048;-38
2022/11/18 07:53:30;;;;;;;13.38;5.05;;;;;;;7.57;100.00;99871.13;5039162;28;20455;-38
2022/11/18 07:55:56;;;;;;;15.77;5.18;;;;;;;7.58;100.00;99870.13;5041982;28;20584;-36
2022/11/18 07:58:21;;;;;;;24.25;5.30;;;;;;;7.58;100.00;99872.81;5040419;28;20025;-37
2022/11/18 08:00:46;;;;;;;15.50;5.03;;;;;;;7.58;100.00;99880.00;5039593;28;20024;-38
2022/11/18 08:03:12;;;;;;;17.77;5.05;;;;;;;7.63;100.00;99883.75;5041193;28;20024;-38
2022/11/18 08:05:37;;;;;;;19.85;5.18;;;;;;;7.63;100.00;99883.75;5039911;28;20033;-36
2022/11/18 08:08:02;;;;;;;15.57;5.05;;;;;;;7.64;100.00;99888.13;5039574;28;20027;-38
2022/11/18 08:10:28;;;;;;;15.10;5.53;;;;;;;7.74;100.00;99885.16;5036909;28;20041;-40
2022/11/18 08:12:55;;;;;;;16.52;5.80;;;;;;;7.73;100.00;99888.84;5040858;28;20021;-37
2022/11/18 08:15:20;;;;;;;19.55;5.22;;;;;;;7.82;100.00;99892.22;5040395;28;20048;-37
2022/11/18 08:17:45;;;;;;;14.25;5.07;;;;;;;7.89;100.00;99891.31;5039851;28;20040;-40
2022/11/18 08:20:11;;;;;;;15.23;4.47;;;;;;;7.85;100.00;99891.88;5039031;28;20033;-37
2022/11/18 08:22:36;;;;;;;14.35;5.32;;;;;;;7.90;100.00;99902.88;5040683;28;20016;-37
2022/11/18 08:25:01;;;;;;;31.15;5.70;;;;;;;7.91;100.00;99913.38;5039076;28;20052;-36
2022/11/18 08:27:27;;;;;;;21.67;5.63;;;;;;;7.89;100.00;99901.19;5039813;28;20021;-38
2022/11/18 08:29:52;;;;;;;28.65;6.15;;;;;;;7.87;100.00;99916.63;5039257;28;20033;-36
2022/11/18 08:32:17;;;;;;;23.13;5.45;;;;;;;7.90;100.00;99916.28;5039778;28;20380;-40
2022/11/18 08:34:43;;;;;;;15.45;4.53;;;;;;;7.87;100.00;99912.13;5020933;28;20388;-38
2022/11/18 08:37:08;;;;;;;22.42;5.05;;;;;;;7.95;100.00;99915.69;5039016;28;20021;-38
2022/11/18 08:39:34;;;;;;;16.15;4.47;;;;;;;7.96;100.00;99918.19;5039887;28;20032;-37
2022/11/18 08:41:59;;;;;;;25.45;5.40;;;;;;;7.94;100.00;99928.25;5037949;28;20037;-40
2022/11/18 08:44:24;;;;;;;13.98;4.97;;;;;;;7.93;100.00;99931.97;5039464;28;20057;-40
2022/11/18 08:46:50;;;;;;;17.48;5.32;;;;;;;7.98;100.00;99924.19;5040220;28;20025;-36
2022/11/18 08:49:15;;;;;;;20.25;4.78;;;;;;;7.99;100.00;99936.56;5040866;28;20034;-40
2022/11/18 08:51:41;;;;;;;11.35;4.57;;;;;;;8.05;100.00;99930.44;5037590;28;20025;-41
2022/11/18 08:54:06;;;;;;;15.70;4.88;;;;;;;8.04;100.00;99936.84;5041499;28;20426;-36
2022/11/18 08:56:31;;;;;;;14.93;4.70;;;;;;;8.10;100.00;99943.28;5040364;28;20026;-39
2022/11/18 08:58:56;;;;;;;14.43;4.57;;;;;;;8.15;100.00;99946.25;5040084;28;20056;-36
2022/11/18 09:01:22;;;;;;;19.15;4.68;;;;;;;8.15;100.00;99946.25;5042204;28;20036;-39
2022/11/18 09:03:47;;;;;;;20.55;5.22;;;;;;;8.22;100.00;99946.34;5038148;28;20014;-40
2022/11/18 09:06:18;;;;;;;14.05;4.65;;;;;;;8.23;100.00;99950.66;5038575;28;20057;-34
2022/11/18 09:08:44;;;;;;;14.70;4.28;;;;;;;8.26;100.00;99947.59;5039597;28;20029;-37
2022/11/18 09:11:12;;;;;;;18.73;4.93;;;;;;;8.27;100.00;99952.78;5040088;28;20031;-36
2022/11/18 09:13:37;;;;;;;11.85;4.10;;;;;;;8.33;100.00;99946.66;5024142;28;20064;-36
2022/11/18 09:16:03;;;;;;;13.10;3.78;;;;;;;8.33;100.00;99953.88;5037324;28;20042;-36
2022/11/18 09:18:29;;;;;;;13.93;4.50;;;;;;;8.38;100.00;99946.09;5041068;28;20017;-36
2022/11/18 09:21:03;;;;;;;22.92;5.32;;;;;;;8.42;100.00;99951.94;5044334;28;20021;-35
2022/11/18 09:23:30;;;;;;;9.85;3.90;;;;;;;8.51;100.00;99951.63;5042292;28;20025;-38
2022/11/18 09:26:07;;;;;;;15.90;3.80;;;;;;;8.56;100.00;99959.94;5042492;28;20384;-36
2022/11/18 09:28:32;;;;;;;17.52;3.60;;;;;;;8.60;100.00;99960.38;5043248;28;20036;-35
2022/11/18 09:31:02;;;;;;;6.03;3.55;;;;;;;8.52;100.00;99949.78;5041827;28;20025;-36
2022/11/18 09:33:28;;;;;;;10.85;3.88;;;;;;;8.47;100.00;99955.69;5042536;28;20018;-34
2022/11/18 09:35:53;;;;;;;17.50;4.35;;;;;;;8.42;100.00;99957.28;5041759;28;20055;-35
2022/11/18 09:38:18;;;;;;;11.90;3.40;;;;;;;8.42;100.00;99958.13;5043483;28;20056;-38
2022/11/18 09:40:49;;;;;;;15.63;4.85;;;;;;;8.42;100.00;99963.47;5042591;28;20017;-35
2022/11/18 09:43:36;;;;;;;14.25;4.25;;;;;;;8.50;100.00;99970.56;5042289;28;20040;-34
2022/11/18 09:46:15;;;;;;;23.33;4.28;;;;;;;8.57;100.00;99985.72;5043895;28;20051;-36
2022/11/18 09:51:26;;;;;;;18.35;4.28;;;;;;;8.53;100.00;99987.13;5041685;28;20073;-36
2022/11/18 09:53:52;;;;;;;22.63;4.03;;;;;;;8.54;100.00;99999.50;5050252;28;20025;-38
2022/11/18 09:56:19;;;;;;;12.65;4.00;;;;;;;8.64;100.00;99998.41;5050704;28;20471;-37
2022/11/18 09:58:44;;;;;;;13.35;3.92;;;;;;;8.77;100.00;100003.91;5035502;28;20033;-35
2022/11/18 10:01:12;;;;;;;16.40;4.03;;;;;;;8.76;100.00;100007.59;5052621;28;20032;-35
2022/11/18 10:03:38;;;;;;;12.27;3.22;;;;;;;8.68;100.00;100005.03;5050975;28;20112;-36
2022/11/18 10:06:15;;;;;;;23.42;4.15;;;;;;;8.82;100.00;100014.03;5032856;28;20133;-37
2022/11/18 10:08:57;;;;;;;10.73;3.58;;;;;;;8.96;100.00;100013.16;5014215;28;20064;-35
2022/11/18 10:11:29;;;;;;;14.98;3.80;;;;;;;8.92;100.00;100011.88;5030059;28;20036;-36
2022/11/18 10:14:28;;;;;;;15.25;3.72;;;;;;;8.94;100.00;100016.03;5031392;28;20136;-37
2022/11/18 10:17:12;;;;;;;16.13;4.50;;;;;;;8.91;100.00;100020.97;5030730;28;20052;-36
2022/11/18 10:19:45;;;;;;;10.43;3.17;;;;;;;8.95;100.00;100016.84;5031769;28;20037;-35
2022/11/18 10:22:35;;;;;;;15.07;3.50;;;;;;;8.97;100.00;100026.38;5030192;28;20233;-39
2022/11/18 10:25:00;;;;;;;15.45;3.75;;;;;;;8.92;100.00;100020.75;5030056;28;20428;-36
2022/11/18 10:27:36;;;;;;;15.60;3.97;;;;;;;8.92;100.00;100018.06;5011378;28;20041;-37
2022/11/18 10:30:11;;;;;;;16.73;3.53;;;;;;;8.98;100.00;100025.38;5029800;28;20156;-36
2022/11/18 10:32:58;;;;;;;18.30;3.70;;;;;;;9.08;100.00;100026.88;5028567;28;20664;-39
2022/11/18 10:35:35;;;;;;;20.40;4.00;;;;;;;9.07;100.00;100030.59;5029217;28;20037;-39
2022/11/18 10:38:17;;;;;;;15.43;3.50;;;;;;;9.20;100.00;100036.09;5030294;28;20033;-39
2022/11/18 10:40:48;;;;;;;13.23;3.33;;;;;;;9.22;100.00;100028.69;5030150;28;20439;-39
2022/11/18 10:43:52;;;;;;;16.80;4.10;;;;;;;9.23;100.00;100024.97;5031455;28;20076;-38
2022/11/18 10:46:27;;;;;;;16.13;3.70;;;;;;;9.23;100.00;100036.53;5030466;28;20033;-38
2022/11/18 10:49:11;;;;;;;16.35;3.53;;;;;;;9.34;100.00;100037.03;5030871;28;20032;-37
2022/11/18 10:51:39;;;;;;;17.25;3.90;;;;;;;9.55;100.00;100044.22;5029620;28;20095;-39
2022/11/18 10:54:16;;;;;;;14.40;3.72;;;;;;;9.62;100.00;100039.75;5031232;28;20392;-38
2022/11/18 10:56:43;;;;;;;13.85;3.67;;;;;;;9.60;100.00;100036.41;5031337;28;20033;-35
2022/11/18 10:59:20;;;;;;;13.13;3.60;;;;;;;9.60;100.00;100036.41;5030588;28;20089;-36
2022/11/18 11:02:01;;;;;;;14.30;3.72;;;;;;;9.54;100.00;100047.94;5029506;28;20030;-39
2022/11/18 11:04:27;;;;;;;16.17;3.83;;;;;;;9.35;100.00;100042.22;5025718;28;20341;-37
2022/11/18 11:06:53;;;;;;;12.68;3.80;;;;;;;9.29;100.00;100045.66;5028415;28;20032;-38
2022/11/18 11:09:25;;;;;;;11.32;4.40;;;;;;;9.32;100.00;100048.00;5021262;28;20029;-39
2022/11/18 11:12:24;;;;;;;11.88;3.60;;;;;;;9.40;100.00;100052.38;5042439;28;20036;-40
2022/11/18 11:14:55;;;;;;;15.43;4.93;;;;;;;9.52;100.00;100050.00;5001127;28;1065056;-40
2022/11/18 11:17:35;;;;;;;17.25;5.07;;;;;;;9.42;100.00;100058.38;5044914;28;20040;-39
2022/11/18 11:20:16;;;;;;;19.10;4.90;;;;;;;9.38;100.00;100052.56;5043134;28;20151;-39
2022/11/18 11:22:42;;;;;;;19.50;5.95;;;;;;;9.32;100.00;100063.25;5045420;28;20091;-36
2022/11/18 11:25:16;;;;;;;17.90;5.63;;;;;;;9.17;100.00;100053.41;5045571;28;20053;-39
2022/11/18 11:28:26;;;;;;;20.20;5.38;;;;;;;9.20;100.00;100063.75;5045642;28;20033;-36
2022/11/18 11:31:28;;;;;;;15.07;5.50;;;;;;;9.27;100.00;100069.22;5047276;28;20090;-37
2022/11/18 11:34:05;;;;;;;11.38;5.03;;;;;;;9.19;100.00;100063.97;5045094;28;20044;-37
2022/11/18 11:36:46;;;;;;;18.77;6.07;;;;;;;9.28;100.00;100068.19;5041188;28;20568;-35
2022/11/18 11:39:35;;;;;;;12.50;5.60;;;;;;;9.29;100.00;100082.44;5042900;28;20040;-38
2022/11/18 11:42:12;;;;;;;12.82;5.80;;;;;;;9.27;100.00;100079.09;5043706;28;20545;-35
2022/11/18 11:44:47;;;;;;;20.00;6.65;;;;;;;9.31;100.00;100075.03;5044047;28;20565;-35
2022/11/18 11:47:46;;;;;;;17.30;6.95;;;;;;;9.35;100.00;100070.94;5044223;28;20047;-38
2022/11/18 11:50:13;;;;;;;18.52;7.90;;;;;;;9.36;100.00;100083.34;5045297;28;20033;-38
2022/11/18 11:53:04;;;;;;;18.63;7.18;;;;;;;9.33;100.00;100078.34;5044573;28;20041;-39
2022/11/18 11:55:41;;;;;;;23.00;7.97;;;;;;;9.37;100.00;100083.16;5026290;28;20075;-37
2022/11/18 11:58:12;;;;;;;25.90;8.38;;;;;;;9.43;100.00;100085.06;5018794;28;20079;-34